EmailTwitter


Surface observations / United Kingdom / EGTE (03839)

Regions: Quebec | Canada | USA | Europe | France | UK | Elsewhere
Station
Display
Info & Location for EGTE (03839) | Help decoding METAR

Weather Conditions observed on 2017/10/17 at 18:20 UTC at EXETER AIRPORT, UK (EGTE)

Sky conditions: few clouds.

Obstruction(s) to Vision: light drizzle.

Temperature: 10.0 Celsius.

Dewpoint: 10.0 Celsius.

Relative Humidity: 100%

Winds: Northeast at 4 km/h or 2 knots.

Mean Sea level Pressure: 101.60 kilopascals.

Horizontal visibility: 6.21 statute miles or 9.94 kilometers.

Coded METAR:

EGTE 171820Z 03002KT 9999 -DZ FEW038 10/10 Q1016=